Time;durP1;ratioP1;P1;durP2;ratioP2;P2;SDS_P1;SDS_P2;PMS_P1;PMS_P2;Temp;Humidity;BMP_temperature;BMP_pressure;BME280_temperature;BME280_humidity;BME280_pressure;Samples;Min_cycle;Max_cycle;Signal;HPM_P1;HPM_P2
2023/03/16 00:00:12;;;;;;;14.87;10.17;;;;;;;;;;5050815;28;20209;-74
2023/03/16 00:02:42;;;;;;;17.03;10.80;;;;;;;;;;5045684;28;20253;-73
2023/03/16 00:05:11;;;;;;;16.63;10.70;;;;;;;;;;5044102;28;20229;-74
2023/03/16 00:07:38;;;;;;;13.80;9.60;;;;;;;;;;5040143;28;20181;-74
2023/03/16 00:10:04;;;;;;;14.77;10.47;;;;;;;;;;5038563;28;20217;-74
2023/03/16 00:12:33;;;;;;;14.70;9.83;;;;;;;;;;5049699;28;20677;-74
2023/03/16 00:14:59;;;;;;;14.73;10.50;;;;;;;;;;5042917;28;20203;-74
2023/03/16 00:17:26;;;;;;;18.33;11.33;;;;;;;;;;5039063;28;20255;-73
2023/03/16 00:19:53;;;;;;;16.43;11.17;;;;;;;;;;5046204;28;20174;-72
2023/03/16 00:22:24;;;;;;;16.53;11.33;;;;;;;;;;5045155;28;20269;-74
2023/03/16 00:24:51;;;;;;;15.47;10.47;;;;;;;;;;5042338;28;20293;-74
2023/03/16 00:27:18;;;;;;;17.70;11.47;;;;;;;;;;5044094;28;20278;-74
2023/03/16 00:29:48;;;;;;;15.47;10.63;;;;;;;;;;5043701;28;20210;-73
2023/03/16 00:32:18;;;;;;;16.40;10.97;;;;;;;;;;5044203;28;20850;-74
2023/03/16 00:34:45;;;;;;;17.23;11.10;;;;;;;;;;5044625;28;20205;-75
2023/03/16 00:37:14;;;;;;;15.13;9.77;;;;;;;;;;5039563;28;20204;-75
2023/03/16 00:39:41;;;;;;;12.93;9.13;;;;;;;;;;5038549;28;20293;-74
2023/03/16 00:42:08;;;;;;;11.43;8.47;;;;;;;;;;5048208;28;20247;-74
2023/03/16 00:44:35;;;;;;;13.50;9.73;;;;;;;;;;5044180;28;20190;-74
2023/03/16 00:47:01;;;;;;;13.47;9.50;;;;;;;;;;5048691;28;20170;-73
2023/03/16 00:49:27;;;;;;;14.10;9.53;;;;;;;;;;5052717;28;20177;-73
2023/03/16 00:51:53;;;;;;;13.30;9.43;;;;;;;;;;5050650;28;20199;-75
2023/03/16 00:54:21;;;;;;;12.47;9.03;;;;;;;;;;5049364;28;20691;-74
2023/03/16 00:56:47;;;;;;;13.10;8.60;;;;;;;;;;5054889;28;20577;-73
2023/03/16 00:59:15;;;;;;;10.30;7.80;;;;;;;;;;5030062;28;20298;-73
2023/03/16 01:01:41;;;;;;;12.57;8.50;;;;;;;;;;5046345;28;20200;-73
2023/03/16 01:04:08;;;;;;;13.77;10.00;;;;;;;;;;5049800;28;20210;-73
2023/03/16 01:06:34;;;;;;;14.80;10.10;;;;;;;;;;5052476;28;20208;-73
2023/03/16 01:09:04;;;;;;;14.70;10.20;;;;;;;;;;5050557;28;20657;-72
2023/03/16 01:11:32;;;;;;;15.97;10.40;;;;;;;;;;5048867;28;20185;-73
2023/03/16 01:13:59;;;;;;;15.30;10.93;;;;;;;;;;5054460;28;20868;-73
2023/03/16 01:16:25;;;;;;;16.60;11.23;;;;;;;;;;5049601;28;20187;-73
2023/03/16 01:18:52;;;;;;;17.20;11.83;;;;;;;;;;5053155;28;20272;-73
2023/03/16 01:21:20;;;;;;;16.57;11.63;;;;;;;;;;5057425;28;20223;-74
2023/03/16 01:23:46;;;;;;;16.43;10.90;;;;;;;;;;5050097;28;20626;-75
2023/03/16 01:26:16;;;;;;;18.33;11.73;;;;;;;;;;5051337;28;20205;-74
2023/03/16 01:28:43;;;;;;;15.47;11.17;;;;;;;;;;5066645;28;20186;-75
2023/03/16 01:31:11;;;;;;;18.00;11.80;;;;;;;;;;5053188;28;20649;-73
2023/03/16 01:33:37;;;;;;;14.03;10.20;;;;;;;;;;5049491;28;20232;-73
2023/03/16 01:36:08;;;;;;;13.67;10.20;;;;;;;;;;5056235;28;20181;-73
2023/03/16 01:38:58;;;;;;;15.33;10.90;;;;;;;;;;5052241;28;20185;-73
2023/03/16 01:41:27;;;;;;;15.03;10.60;;;;;;;;;;5055606;28;20587;-74
2023/03/16 01:43:57;;;;;;;15.80;10.67;;;;;;;;;;5049204;28;20209;-73
2023/03/16 01:46:25;;;;;;;15.10;10.33;;;;;;;;;;5055305;28;20300;-73
2023/03/16 01:49:04;;;;;;;15.03;10.97;;;;;;;;;;5055697;28;20257;-73
2023/03/16 01:51:36;;;;;;;15.27;10.67;;;;;;;;;;5046850;28;20298;-73
2023/03/16 01:54:22;;;;;;;14.17;10.07;;;;;;;;;;5048756;28;20211;-73
2023/03/16 01:56:56;;;;;;;13.47;9.80;;;;;;;;;;5024886;28;20280;-73
2023/03/16 01:59:25;;;;;;;16.73;10.90;;;;;;;;;;5049381;28;20183;-73
2023/03/16 02:01:51;;;;;;;14.87;11.10;;;;;;;;;;5051424;28;20189;-73
2023/03/16 02:04:36;;;;;;;13.60;10.10;;;;;;;;;;5045582;28;20779;-74
2023/03/16 02:07:04;;;;;;;12.73;9.77;;;;;;;;;;5046428;28;20189;-74
2023/03/16 02:09:34;;;;;;;14.67;10.43;;;;;;;;;;5053888;28;20186;-73
2023/03/16 02:12:00;;;;;;;15.73;11.07;;;;;;;;;;5051257;28;20217;-73
2023/03/16 02:14:28;;;;;;;14.53;10.10;;;;;;;;;;5046457;28;20200;-73
2023/03/16 02:16:56;;;;;;;14.57;10.60;;;;;;;;;;5034393;28;20186;-73
2023/03/16 02:19:45;;;;;;;14.20;10.50;;;;;;;;;;5038813;28;20279;-74
2023/03/16 02:22:12;;;;;;;13.80;10.10;;;;;;;;;;5051247;28;20200;-73
2023/03/16 02:24:39;;;;;;;12.97;9.60;;;;;;;;;;5053267;28;20209;-74
2023/03/16 02:27:10;;;;;;;16.60;11.07;;;;;;;;;;5052363;28;20267;-73
2023/03/16 02:29:41;;;;;;;14.10;10.30;;;;;;;;;;5049620;28;20188;-73
2023/03/16 02:32:08;;;;;;;14.77;10.57;;;;;;;;;;5035651;28;20720;-74
2023/03/16 02:34:34;;;;;;;14.40;10.60;;;;;;;;;;5029245;28;20293;-73
2023/03/16 02:37:01;;;;;;;13.03;9.77;;;;;;;;;;5054036;28;20275;-74
2023/03/16 02:39:28;;;;;;;16.97;10.70;;;;;;;;;;5048898;28;20273;-74
2023/03/16 02:41:55;;;;;;;13.83;9.70;;;;;;;;;;5045469;28;20218;-74
2023/03/16 02:44:32;;;;;;;12.63;9.63;;;;;;;;;;5061985;28;20210;-74
2023/03/16 02:47:00;;;;;;;15.40;10.57;;;;;;;;;;5042513;28;20286;-73
2023/03/16 02:49:30;;;;;;;13.90;10.23;;;;;;;;;;5046356;28;20174;-73
2023/03/16 02:51:56;;;;;;;12.33;9.37;;;;;;;;;;5042335;28;20290;-74
2023/03/16 02:54:23;;;;;;;15.40;11.60;;;;;;;;;;5044375;28;20209;-73
2023/03/16 02:56:51;;;;;;;15.07;11.67;;;;;;;;;;5044347;28;20221;-74
2023/03/16 02:59:17;;;;;;;17.17;11.53;;;;;;;;;;5044880;28;20185;-74
2023/03/16 03:01:44;;;;;;;15.50;11.43;;;;;;;;;;5045272;28;20197;-74
2023/03/16 03:04:10;;;;;;;16.70;12.03;;;;;;;;;;5049502;28;20221;-74
2023/03/16 03:06:36;;;;;;;14.70;10.40;;;;;;;;;;5041877;28;20217;-74
2023/03/16 03:09:03;;;;;;;15.13;11.03;;;;;;;;;;5046072;28;20190;-73
2023/03/16 03:11:30;;;;;;;16.70;11.53;;;;;;;;;;5045797;28;20220;-73
2023/03/16 03:13:56;;;;;;;13.73;9.63;;;;;;;;;;5047251;28;20259;-74
2023/03/16 03:16:25;;;;;;;15.00;10.77;;;;;;;;;;5048719;28;20228;-73
2023/03/16 03:18:51;;;;;;;13.50;10.27;;;;;;;;;;5045800;28;20424;-74
2023/03/16 03:21:18;;;;;;;16.43;10.90;;;;;;;;;;5052002;28;20189;-73
2023/03/16 03:23:45;;;;;;;15.93;9.87;;;;;;;;;;5045995;28;20206;-73
2023/03/16 03:26:13;;;;;;;14.57;9.53;;;;;;;;;;5044848;28;20241;-74
2023/03/16 03:28:40;;;;;;;13.00;9.63;;;;;;;;;;5049458;28;20186;-73
2023/03/16 03:31:06;;;;;;;12.73;9.00;;;;;;;;;;5045604;28;20181;-73
2023/03/16 03:33:32;;;;;;;12.10;9.10;;;;;;;;;;5028450;28;20206;-73
2023/03/16 03:35:59;;;;;;;12.83;9.60;;;;;;;;;;5049613;28;20190;-73
2023/03/16 03:38:29;;;;;;;12.80;9.00;;;;;;;;;;5046282;28;20221;-74
2023/03/16 03:40:58;;;;;;;13.83;9.00;;;;;;;;;;5039796;28;20181;-74
2023/03/16 03:43:26;;;;;;;14.03;10.00;;;;;;;;;;5044535;28;20675;-73
2023/03/16 03:45:59;;;;;;;12.80;9.23;;;;;;;;;;5041327;28;20241;-73
2023/03/16 03:48:26;;;;;;;13.10;9.20;;;;;;;;;;5060387;28;20181;-73
2023/03/16 03:50:52;;;;;;;12.97;9.77;;;;;;;;;;5047221;28;20692;-73
2023/03/16 03:53:34;;;;;;;12.87;9.00;;;;;;;;;;5044991;28;20204;-73
2023/03/16 03:56:29;;;;;;;13.47;9.73;;;;;;;;;;5031867;28;20182;-73
2023/03/16 03:58:55;;;;;;;10.93;7.70;;;;;;;;;;5042398;28;20182;-73
2023/03/16 04:01:37;;;;;;;12.57;9.20;;;;;;;;;;5034619;28;20178;-74
2023/03/16 04:04:03;;;;;;;12.53;8.53;;;;;;;;;;5044500;28;20737;-74
2023/03/16 04:06:30;;;;;;;13.57;9.20;;;;;;;;;;5032342;28;20307;-73
2023/03/16 04:08:56;;;;;;;13.57;9.17;;;;;;;;;;5050541;28;20190;-74
2023/03/16 04:11:25;;;;;;;12.33;9.57;;;;;;;;;;5049122;28;20229;-73
2023/03/16 04:13:52;;;;;;;13.63;8.77;;;;;;;;;;5045030;28;20627;-74
2023/03/16 04:16:19;;;;;;;11.57;8.53;;;;;;;;;;5031480;28;20188;-74
2023/03/16 04:18:47;;;;;;;11.23;8.10;;;;;;;;;;5032921;28;20186;-73
2023/03/16 04:21:17;;;;;;;11.70;8.53;;;;;;;;;;5053660;28;20220;-74
2023/03/16 04:23:46;;;;;;;10.27;7.43;;;;;;;;;;5047396;28;20210;-73
2023/03/16 04:26:12;;;;;;;11.57;8.23;;;;;;;;;;5063892;28;20198;-73
2023/03/16 04:28:42;;;;;;;9.97;7.57;;;;;;;;;;5031694;28;20237;-73
2023/03/16 04:31:10;;;;;;;9.77;7.53;;;;;;;;;;5045413;28;20602;-73
2023/03/16 04:33:41;;;;;;;10.23;7.97;;;;;;;;;;5041295;28;20429;-73
2023/03/16 04:36:08;;;;;;;12.07;7.63;;;;;;;;;;5055242;28;20269;-75
2023/03/16 04:38:36;;;;;;;12.23;7.80;;;;;;;;;;5037207;28;20243;-74
2023/03/16 04:41:03;;;;;;;10.93;8.10;;;;;;;;;;5048485;28;20697;-74
2023/03/16 04:43:33;;;;;;;10.73;7.57;;;;;;;;;;5048436;28;20206;-75
2023/03/16 04:46:05;;;;;;;12.27;8.40;;;;;;;;;;5048113;28;20262;-73
2023/03/16 04:48:32;;;;;;;11.17;7.47;;;;;;;;;;5048147;28;20178;-73
2023/03/16 04:51:02;;;;;;;9.40;7.10;;;;;;;;;;5031834;28;20197;-74
2023/03/16 04:53:31;;;;;;;11.33;7.90;;;;;;;;;;5031091;28;20642;-73
2023/03/16 04:56:02;;;;;;;10.83;7.70;;;;;;;;;;5054169;28;20204;-73
2023/03/16 04:58:29;;;;;;;7.43;6.00;;;;;;;;;;5030281;28;20186;-74
2023/03/16 05:00:57;;;;;;;8.37;6.27;;;;;;;;;;5058913;28;20229;-74
2023/03/16 05:03:28;;;;;;;7.63;5.80;;;;;;;;;;5047532;28;20697;-74
2023/03/16 05:05:54;;;;;;;7.07;5.83;;;;;;;;;;5048435;28;20206;-74
2023/03/16 05:08:22;;;;;;;7.53;5.53;;;;;;;;;;5031128;28;20262;-74
2023/03/16 05:10:49;;;;;;;6.47;5.07;;;;;;;;;;5047148;28;20181;-74
2023/03/16 05:13:16;;;;;;;6.20;5.10;;;;;;;;;;5037209;28;20554;-74
2023/03/16 05:15:45;;;;;;;6.83;5.60;;;;;;;;;;5031256;28;20185;-73
2023/03/16 05:18:19;;;;;;;8.67;5.30;;;;;;;;;;5037942;28;20214;-73
2023/03/16 05:20:45;;;;;;;8.50;5.60;;;;;;;;;;5049991;28;20538;-74
2023/03/16 05:23:11;;;;;;;7.70;5.47;;;;;;;;;;5046805;28;20178;-74
2023/03/16 05:25:46;;;;;;;9.67;6.30;;;;;;;;;;5053760;28;20736;-74
2023/03/16 05:28:12;;;;;;;8.60;5.73;;;;;;;;;;5047082;28;20205;-72
2023/03/16 05:30:44;;;;;;;9.53;6.57;;;;;;;;;;5048084;28;20178;-73
2023/03/16 05:33:14;;;;;;;10.83;7.27;;;;;;;;;;5046205;28;20186;-72
2023/03/16 05:35:42;;;;;;;12.93;6.87;;;;;;;;;;5064377;28;20181;-72
2023/03/16 05:38:11;;;;;;;10.93;7.00;;;;;;;;;;5051005;28;20185;-73
2023/03/16 05:40:39;;;;;;;8.97;6.40;;;;;;;;;;5048530;28;20204;-72
2023/03/16 05:43:16;;;;;;;9.00;6.80;;;;;;;;;;5049925;28;20190;-73
2023/03/16 05:45:48;;;;;;;9.00;6.90;;;;;;;;;;5056222;28;20291;-74
2023/03/16 05:48:16;;;;;;;9.23;6.17;;;;;;;;;;5053179;28;20656;-74
2023/03/16 05:50:47;;;;;;;9.37;6.77;;;;;;;;;;5037992;28;20186;-74
2023/03/16 05:53:16;;;;;;;11.13;7.17;;;;;;;;;;5046438;28;20166;-74
2023/03/16 05:55:42;;;;;;;8.87;6.70;;;;;;;;;;5047057;28;20209;-73
2023/03/16 05:58:11;;;;;;;9.03;6.97;;;;;;;;;;5047091;28;20217;-73
2023/03/16 06:00:40;;;;;;;9.10;6.80;;;;;;;;;;5046056;28;20253;-74
2023/03/16 06:03:17;;;;;;;9.37;7.00;;;;;;;;;;5046465;28;20296;-74
2023/03/16 06:05:43;;;;;;;8.00;6.10;;;;;;;;;;5048815;28;20712;-74
2023/03/16 06:08:10;;;;;;;8.43;5.90;;;;;;;;;;5045763;28;20178;-74
2023/03/16 06:10:39;;;;;;;8.17;6.27;;;;;;;;;;5053698;28;20201;-73
2023/03/16 06:13:05;;;;;;;9.00;6.63;;;;;;;;;;5041752;28;20189;-73
2023/03/16 06:15:32;;;;;;;9.67;6.60;;;;;;;;;;5046543;28;20198;-73
2023/03/16 06:18:01;;;;;;;8.17;6.33;;;;;;;;;;5034257;28;20215;-74
2023/03/16 06:20:28;;;;;;;8.23;6.53;;;;;;;;;;5043572;28;20725;-73
2023/03/16 06:22:55;;;;;;;9.67;7.13;;;;;;;;;;5042662;28;20269;-73
2023/03/16 06:25:22;;;;;;;8.67;7.67;;;;;;;;;;5043329;28;20221;-73
2023/03/16 06:27:49;;;;;;;8.17;6.90;;;;;;;;;;5047265;28;20186;-74
2023/03/16 06:30:17;;;;;;;8.43;6.20;;;;;;;;;;5048701;28;20795;-74
2023/03/16 06:32:46;;;;;;;8.67;6.17;;;;;;;;;;5045496;28;20174;-75
2023/03/16 06:35:13;;;;;;;9.47;7.30;;;;;;;;;;5040406;28;20334;-73
2023/03/16 06:38:04;;;;;;;7.97;6.67;;;;;;;;;;5028189;28;20777;-73
2023/03/16 06:40:43;;;;;;;10.50;7.43;;;;;;;;;;5046658;28;20679;-74
2023/03/16 06:43:09;;;;;;;8.13;6.37;;;;;;;;;;5042606;28;20190;-75
2023/03/16 06:45:35;;;;;;;10.93;7.80;;;;;;;;;;5052075;28;20204;-79
2023/03/16 06:48:02;;;;;;;11.23;7.80;;;;;;;;;;5043288;28;20182;-80
2023/03/16 06:50:28;;;;;;;12.20;7.80;;;;;;;;;;5046705;28;20243;-77
2023/03/16 06:52:54;;;;;;;11.77;8.57;;;;;;;;;;5051298;28;20728;-74
2023/03/16 06:55:21;;;;;;;8.60;6.80;;;;;;;;;;5045249;28;20209;-74
2023/03/16 06:57:48;;;;;;;11.07;7.70;;;;;;;;;;5045067;28;20600;-74
2023/03/16 07:00:15;;;;;;;9.80;7.53;;;;;;;;;;5046337;28;20190;-77
2023/03/16 07:02:42;;;;;;;11.00;8.97;;;;;;;;;;5044592;28;20205;-75
2023/03/16 07:05:14;;;;;;;11.70;10.00;;;;;;;;;;5044399;28;20229;-74
2023/03/16 07:07:41;;;;;;;9.93;8.17;;;;;;;;;;5058658;28;20736;-75
2023/03/16 07:10:12;;;;;;;11.80;9.80;;;;;;;;;;5055074;28;20780;-75
2023/03/16 07:12:38;;;;;;;13.23;11.83;;;;;;;;;;5045752;28;20185;-75
2023/03/16 07:15:04;;;;;;;14.13;11.40;;;;;;;;;;5047402;28;20212;-75
2023/03/16 07:17:31;;;;;;;11.10;8.43;;;;;;;;;;5050005;28;20264;-75
2023/03/16 07:19:58;;;;;;;10.50;7.70;;;;;;;;;;5047817;28;20265;-75
2023/03/16 07:22:24;;;;;;;8.80;7.53;;;;;;;;;;5029667;28;20645;-75
2023/03/16 07:24:56;;;;;;;9.53;7.23;;;;;;;;;;5042620;28;20209;-76
2023/03/16 07:27:23;;;;;;;8.47;6.93;;;;;;;;;;5036516;28;20820;-75
2023/03/16 07:29:53;;;;;;;13.57;10.47;;;;;;;;;;5026471;28;20205;-75
2023/03/16 07:32:20;;;;;;;10.57;7.80;;;;;;;;;;5043772;28;20265;-75
2023/03/16 07:34:46;;;;;;;10.47;8.23;;;;;;;;;;5048170;28;20296;-75
2023/03/16 07:37:14;;;;;;;9.40;7.50;;;;;;;;;;5046977;28;20191;-75
2023/03/16 07:39:43;;;;;;;8.37;6.67;;;;;;;;;;5045201;28;20799;-75
2023/03/16 07:42:15;;;;;;;9.53;7.80;;;;;;;;;;5041961;28;20188;-76
2023/03/16 07:44:57;;;;;;;10.07;8.00;;;;;;;;;;5045432;28;20267;-76
2023/03/16 07:47:24;;;;;;;9.53;7.57;;;;;;;;;;5029522;28;20213;-75
2023/03/16 07:49:51;;;;;;;10.43;7.87;;;;;;;;;;5031856;28;20188;-76
2023/03/16 07:52:17;;;;;;;11.10;8.97;;;;;;;;;;5039603;28;20190;-75
2023/03/16 07:54:44;;;;;;;13.00;10.00;;;;;;;;;;5045499;28;20212;-76
2023/03/16 07:57:11;;;;;;;12.03;9.33;;;;;;;;;;5049731;28;20181;-75
2023/03/16 07:59:40;;;;;;;9.93;8.43;;;;;;;;;;5010184;28;20178;-75
2023/03/16 08:02:13;;;;;;;9.13;7.27;;;;;;;;;;5062213;28;20243;-76
2023/03/16 08:04:43;;;;;;;10.83;7.80;;;;;;;;;;5059735;28;20255;-75
2023/03/16 08:07:10;;;;;;;11.20;9.20;;;;;;;;;;5047234;28;20288;-76
2023/03/16 08:09:50;;;;;;;13.30;9.40;;;;;;;;;;5041231;28;20197;-76
2023/03/16 08:12:21;;;;;;;11.43;8.83;;;;;;;;;;5050390;28;20260;-75
2023/03/16 08:14:47;;;;;;;10.97;8.47;;;;;;;;;;5049801;28;20202;-75
2023/03/16 08:17:21;;;;;;;9.83;7.77;;;;;;;;;;5050329;28;20182;-76
2023/03/16 08:19:49;;;;;;;8.03;6.73;;;;;;;;;;5049030;28;20206;-75
2023/03/16 08:22:16;;;;;;;9.73;7.50;;;;;;;;;;5049531;28;20186;-75
2023/03/16 08:24:44;;;;;;;12.37;7.20;;;;;;;;;;5049343;28;20198;-75
2023/03/16 08:27:12;;;;;;;10.77;7.40;;;;;;;;;;5046417;28;20217;-75
2023/03/16 08:29:42;;;;;;;14.73;9.20;;;;;;;;;;5016501;28;20194;-76
2023/03/16 08:32:13;;;;;;;13.97;8.50;;;;;;;;;;5049187;28;20657;-76
2023/03/16 08:34:42;;;;;;;8.50;6.83;;;;;;;;;;5016254;28;20206;-75
2023/03/16 08:37:10;;;;;;;7.80;6.07;;;;;;;;;;5057025;28;20189;-76
2023/03/16 08:39:36;;;;;;;8.60;6.20;;;;;;;;;;5043801;28;20609;-75
2023/03/16 08:42:07;;;;;;;7.63;6.40;;;;;;;;;;5047257;28;20190;-75
2023/03/16 08:44:40;;;;;;;5.97;5.37;;;;;;;;;;5032526;28;20686;-75
2023/03/16 08:47:06;;;;;;;7.80;5.50;;;;;;;;;;5049752;28;20693;-75
2023/03/16 08:49:35;;;;;;;6.40;5.67;;;;;;;;;;5038159;28;20296;-76
2023/03/16 08:52:09;;;;;;;6.20;4.90;;;;;;;;;;5048512;28;20255;-75
2023/03/16 08:54:35;;;;;;;5.87;5.13;;;;;;;;;;5046537;28;20272;-75
2023/03/16 08:57:02;;;;;;;7.70;5.80;;;;;;;;;;5046541;28;20283;-74
2023/03/16 08:59:28;;;;;;;7.93;5.63;;;;;;;;;;5044629;28;20193;-75
2023/03/16 09:01:54;;;;;;;8.07;5.83;;;;;;;;;;5045270;28;20189;-75
2023/03/16 09:04:21;;;;;;;7.37;5.13;;;;;;;;;;5051171;28;20264;-76
2023/03/16 09:06:50;;;;;;;6.00;5.07;;;;;;;;;;5056902;28;20216;-75
2023/03/16 09:09:16;;;;;;;6.57;4.80;;;;;;;;;;5030732;28;20175;-76
2023/03/16 09:11:43;;;;;;;5.83;4.73;;;;;;;;;;5042302;28;20182;-76
2023/03/16 09:14:13;;;;;;;7.60;4.87;;;;;;;;;;5048850;28;20206;-75
2023/03/16 09:16:39;;;;;;;6.70;4.63;;;;;;;;;;5047852;28;20190;-76
2023/03/16 09:19:06;;;;;;;5.67;4.83;;;;;;;;;;5045076;28;20197;-75
2023/03/16 09:21:34;;;;;;;6.43;4.47;;;;;;;;;;5049701;28;20268;-75
2023/03/16 09:24:01;;;;;;;5.23;4.40;;;;;;;;;;5049520;28;20197;-76
2023/03/16 09:26:28;;;;;;;5.20;4.63;;;;;;;;;;5044128;28;20225;-76
2023/03/16 09:28:54;;;;;;;6.23;4.60;;;;;;;;;;5048629;28;20227;-75
2023/03/16 09:31:21;;;;;;;4.73;4.10;;;;;;;;;;5054315;28;20212;-75
2023/03/16 09:33:47;;;;;;;4.67;4.10;;;;;;;;;;5047039;28;20205;-76
2023/03/16 09:36:14;;;;;;;4.60;4.13;;;;;;;;;;5047839;28;20208;-76
2023/03/16 09:38:42;;;;;;;5.67;4.20;;;;;;;;;;5047574;28;20186;-76
2023/03/16 09:41:10;;;;;;;4.93;3.80;;;;;;;;;;5047005;28;20553;-76
2023/03/16 09:43:48;;;;;;;4.07;3.50;;;;;;;;;;5049046;28;20237;-77
2023/03/16 09:46:24;;;;;;;4.90;4.00;;;;;;;;;;5048244;28;20681;-76
2023/03/16 09:48:51;;;;;;;4.00;3.60;;;;;;;;;;5049602;28;20166;-76
2023/03/16 09:51:51;;;;;;;8.53;4.00;;;;;;;;;;5038580;28;20616;-77
2023/03/16 09:54:24;;;;;;;4.77;3.70;;;;;;;;;;5008613;28;20308;-76
2023/03/16 09:59:56;;;;;;;5.00;3.47;;;;;;;;;;5046729;28;20272;-77
2023/03/16 10:05:40;;;;;;;4.43;3.17;;;;;;;;;;5040219;28;20294;-77
2023/03/16 10:08:21;;;;;;;4.37;3.37;;;;;;;;;;5041164;28;20206;-76
2023/03/16 10:11:24;;;;;;;4.93;3.40;;;;;;;;;;5036319;28;20677;-76
2023/03/16 10:14:10;;;;;;;4.07;3.00;;;;;;;;;;5050281;28;20200;-77
2023/03/16 10:16:41;;;;;;;5.07;3.50;;;;;;;;;;5045914;28;20190;-76
2023/03/16 10:19:28;;;;;;;4.10;3.17;;;;;;;;;;5046678;28;20182;-77
2023/03/16 10:21:56;;;;;;;4.63;3.20;;;;;;;;;;5041387;28;20848;-76
2023/03/16 10:24:36;;;;;;;4.83;3.10;;;;;;;;;;5050436;28;20260;-76
2023/03/16 10:27:03;;;;;;;3.60;2.87;;;;;;;;;;5029777;28;20208;-76
2023/03/16 10:29:31;;;;;;;4.23;3.20;;;;;;;;;;5047369;28;20209;-76
2023/03/16 10:32:00;;;;;;;4.80;2.97;;;;;;;;;;5046431;28;20189;-77
2023/03/16 10:34:26;;;;;;;3.80;3.00;;;;;;;;;;5038303;28;20300;-76
2023/03/16 10:36:54;;;;;;;3.43;3.10;;;;;;;;;;5048890;28;20181;-76
2023/03/16 10:39:20;;;;;;;3.00;2.60;;;;;;;;;;5051059;28;20551;-76
2023/03/16 10:41:53;;;;;;;2.47;2.27;;;;;;;;;;5043349;28;20188;-77
2023/03/16 10:44:24;;;;;;;2.53;2.33;;;;;;;;;;5052916;28;20210;-77
2023/03/16 10:46:58;;;;;;;3.33;2.67;;;;;;;;;;5049108;28;20217;-76
2023/03/16 10:49:28;;;;;;;4.13;2.63;;;;;;;;;;5046462;28;20189;-77
2023/03/16 10:51:56;;;;;;;4.40;2.70;;;;;;;;;;5045697;28;22283;-74
2023/03/16 10:54:45;;;;;;;3.70;2.90;;;;;;;;;;5049648;28;20339;-74
2023/03/16 10:57:24;;;;;;;3.30;2.70;;;;;;;;;;5050367;28;20186;-75
2023/03/16 10:59:51;;;;;;;3.80;2.93;;;;;;;;;;5049580;28;20185;-78
2023/03/16 11:02:19;;;;;;;3.60;2.67;;;;;;;;;;5050188;28;20401;-75
2023/03/16 11:04:46;;;;;;;3.00;2.50;;;;;;;;;;5045523;28;20198;-76
2023/03/16 11:07:20;;;;;;;3.33;2.83;;;;;;;;;;5045669;28;20232;-77
2023/03/16 11:09:46;;;;;;;3.47;2.60;;;;;;;;;;5042526;28;20177;-77
2023/03/16 11:12:27;;;;;;;3.07;2.37;;;;;;;;;;5046096;28;20170;-77
2023/03/16 11:14:55;;;;;;;4.87;2.60;;;;;;;;;;5048254;28;20209;-76
2023/03/16 11:17:31;;;;;;;2.90;2.50;;;;;;;;;;5049800;28;20200;-77
2023/03/16 11:20:00;;;;;;;3.73;2.50;;;;;;;;;;5048897;28;20174;-77
2023/03/16 11:22:28;;;;;;;3.20;2.30;;;;;;;;;;5042293;28;20703;-76
2023/03/16 11:25:01;;;;;;;3.87;2.60;;;;;;;;;;5047343;28;20237;-76
2023/03/16 11:27:30;;;;;;;7.10;4.90;;;;;;;;;;5047026;28;20189;-76
2023/03/16 11:30:13;;;;;;;3.67;2.80;;;;;;;;;;5041486;28;20693;-77
2023/03/16 11:32:42;;;;;;;2.80;2.30;;;;;;;;;;5048185;28;20173;-77
2023/03/16 11:35:17;;;;;;;4.03;2.37;;;;;;;;;;5029812;28;20205;-77
2023/03/16 11:37:50;;;;;;;2.97;2.30;;;;;;;;;;5047240;28;20577;-76
2023/03/16 11:40:28;;;;;;;5.30;2.80;;;;;;;;;;5044370;28;20201;-76
2023/03/16 11:43:04;;;;;;;4.43;3.47;;;;;;;;;;5041466;28;20189;-77
2023/03/16 11:45:36;;;;;;;3.27;2.77;;;;;;;;;;5038851;28;20696;-75
2023/03/16 11:48:24;;;;;;;3.77;2.53;;;;;;;;;;5033183;28;20183;-76
2023/03/16 11:51:02;;;;;;;2.63;2.20;;;;;;;;;;5042835;28;20189;-76
2023/03/16 11:53:43;;;;;;;3.47;2.67;;;;;;;;;;5043541;28;20689;-75
2023/03/16 11:56:29;;;;;;;3.03;2.13;;;;;;;;;;5042940;28;20189;-79
2023/03/16 11:59:21;;;;;;;3.07;2.27;;;;;;;;;;5045391;28;20204;-75
2023/03/16 12:01:55;;;;;;;4.40;2.70;;;;;;;;;;5041398;28;20547;-75
2023/03/16 12:04:26;;;;;;;3.83;2.30;;;;;;;;;;5044460;28;20210;-75
2023/03/16 12:07:21;;;;;;;2.80;2.40;;;;;;;;;;5042154;28;20214;-75
2023/03/16 12:09:57;;;;;;;2.50;2.30;;;;;;;;;;5030948;28;20197;-75
2023/03/16 12:12:28;;;;;;;3.10;2.50;;;;;;;;;;5045723;28;20213;-77
2023/03/16 12:15:15;;;;;;;2.90;2.40;;;;;;;;;;5042199;28;20850;-75
2023/03/16 12:17:42;;;;;;;2.90;2.10;;;;;;;;;;5045585;28;20213;-74
2023/03/16 12:20:17;;;;;;;2.67;2.33;;;;;;;;;;5046154;28;20227;-75
2023/03/16 12:22:45;;;;;;;2.70;2.27;;;;;;;;;;5042516;28;20185;-75
2023/03/16 12:25:23;;;;;;;2.53;2.00;;;;;;;;;;5038455;28;20646;-74
2023/03/16 12:27:54;;;;;;;3.57;2.57;;;;;;;;;;5042014;28;20192;-75
2023/03/16 12:30:20;;;;;;;2.63;2.27;;;;;;;;;;5042185;28;20269;-75
2023/03/16 12:32:52;;;;;;;4.40;2.40;;;;;;;;;;5039305;28;20679;-75
2023/03/16 12:35:26;;;;;;;2.60;2.10;;;;;;;;;;5044842;28;20190;-74
2023/03/16 12:38:16;;;;;;;3.73;2.20;;;;;;;;;;5040839;28;20196;-74
2023/03/16 12:40:43;;;;;;;2.77;1.90;;;;;;;;;;5057896;28;20280;-74
2023/03/16 12:43:18;;;;;;;3.40;2.87;;;;;;;;;;5039911;28;20668;-74
2023/03/16 12:45:59;;;;;;;3.80;2.00;;;;;;;;;;5039089;28;20201;-74
2023/03/16 12:48:26;;;;;;;2.13;1.83;;;;;;;;;;5045741;28;20672;-74
2023/03/16 12:50:54;;;;;;;2.97;1.53;;;;;;;;;;5034878;28;22305;-75
2023/03/16 12:53:27;;;;;;;2.00;1.80;;;;;;;;;;5044198;28;20344;-75
2023/03/16 12:55:55;;;;;;;5.03;4.57;;;;;;;;;;5044530;28;20194;-75
2023/03/16 12:58:22;;;;;;;2.70;2.50;;;;;;;;;;5052000;28;20653;-75
2023/03/16 13:00:55;;;;;;;2.67;1.70;;;;;;;;;;5045346;28;20231;-80
2023/03/16 13:03:22;;;;;;;2.17;1.80;;;;;;;;;;5047577;28;20209;-77
2023/03/16 13:05:53;;;;;;;2.10;1.70;;;;;;;;;;5046587;28;20591;-76
2023/03/16 13:08:21;;;;;;;3.20;1.50;;;;;;;;;;5048645;28;20213;-73
2023/03/16 13:11:03;;;;;;;2.10;1.50;;;;;;;;;;5044482;28;20217;-73
2023/03/16 13:13:29;;;;;;;1.97;1.50;;;;;;;;;;5043615;28;20714;-74
2023/03/16 13:16:09;;;;;;;2.37;1.80;;;;;;;;;;5045347;28;20193;-75
2023/03/16 13:18:40;;;;;;;3.37;1.60;;;;;;;;;;5047329;28;20178;-75
2023/03/16 13:21:15;;;;;;;1.97;1.50;;;;;;;;;;5044217;28;20189;-79
2023/03/16 13:23:54;;;;;;;2.20;1.60;;;;;;;;;;5042285;28;20312;-76
2023/03/16 13:26:30;;;;;;;1.93;1.67;;;;;;;;;;5046299;28;20689;-76
2023/03/16 13:28:57;;;;;;;2.07;1.87;;;;;;;;;;5038983;28;20245;-75
2023/03/16 13:31:36;;;;;;;2.77;1.90;;;;;;;;;;5045495;28;20192;-76
2023/03/16 13:34:03;;;;;;;2.10;1.90;;;;;;;;;;5040874;28;20200;-77
2023/03/16 13:36:30;;;;;;;2.10;1.67;;;;;;;;;;5020265;28;20183;-77
2023/03/16 13:39:03;;;;;;;2.33;1.80;;;;;;;;;;5047512;28;20374;-77
2023/03/16 13:41:30;;;;;;;1.77;1.50;;;;;;;;;;5042809;28;20194;-77
2023/03/16 13:43:56;;;;;;;2.20;1.70;;;;;;;;;;5048625;28;20202;-77
2023/03/16 13:46:27;;;;;;;2.30;1.77;;;;;;;;;;5020832;28;20213;-77
2023/03/16 13:48:53;;;;;;;2.27;1.70;;;;;;;;;;5042417;28;20243;-77
2023/03/16 13:51:21;;;;;;;4.53;3.10;;;;;;;;;;5046900;28;20201;-77
2023/03/16 13:53:48;;;;;;;5.00;3.30;;;;;;;;;;5046279;28;20561;-77
2023/03/16 13:56:32;;;;;;;3.33;2.37;;;;;;;;;;5047241;28;20293;-77
2023/03/16 13:58:59;;;;;;;2.53;1.87;;;;;;;;;;5049302;28;20195;-77
2023/03/16 14:01:27;;;;;;;1.73;1.60;;;;;;;;;;5051364;28;20719;-77
2023/03/16 14:03:55;;;;;;;3.50;2.10;;;;;;;;;;5031084;28;20287;-76
2023/03/16 14:06:25;;;;;;;2.90;1.80;;;;;;;;;;5045935;28;20353;-77
2023/03/16 14:08:53;;;;;;;3.07;1.73;;;;;;;;;;5047130;28;20267;-77
2023/03/16 14:11:19;;;;;;;2.30;2.00;;;;;;;;;;5045401;28;20533;-77
2023/03/16 14:13:53;;;;;;;3.27;2.37;;;;;;;;;;5045993;28;20208;-76
2023/03/16 14:16:21;;;;;;;3.27;1.97;;;;;;;;;;5046808;28;20342;-77
2023/03/16 14:18:51;;;;;;;2.23;1.83;;;;;;;;;;5046360;28;20292;-77
2023/03/16 14:21:20;;;;;;;2.00;1.80;;;;;;;;;;5040349;28;20547;-77
2023/03/16 14:23:54;;;;;;;3.30;2.53;;;;;;;;;;5043663;28;20206;-77
2023/03/16 14:26:20;;;;;;;4.37;2.50;;;;;;;;;;5043187;28;20242;-77
2023/03/16 14:29:13;;;;;;;2.20;1.93;;;;;;;;;;5045441;28;20224;-77
2023/03/16 14:31:40;;;;;;;2.93;2.10;;;;;;;;;;5023206;28;20217;-77
2023/03/16 14:34:20;;;;;;;3.40;2.10;;;;;;;;;;5042382;28;20206;-77
2023/03/16 14:36:46;;;;;;;3.43;2.40;;;;;;;;;;5051717;28;20190;-77
2023/03/16 14:39:19;;;;;;;2.83;2.40;;;;;;;;;;5041591;28;20189;-77
2023/03/16 14:41:48;;;;;;;10.13;2.70;;;;;;;;;;5047679;28;20194;-78
2023/03/16 14:44:20;;;;;;;3.03;2.30;;;;;;;;;;5044876;28;20205;-77
2023/03/16 14:46:46;;;;;;;4.27;2.80;;;;;;;;;;5011009;28;20209;-80
2023/03/16 14:49:19;;;;;;;4.73;2.70;;;;;;;;;;5050105;28;20206;-77
2023/03/16 14:51:46;;;;;;;3.77;2.63;;;;;;;;;;5030369;28;20201;-78
2023/03/16 14:54:15;;;;;;;4.13;2.40;;;;;;;;;;5046677;28;20213;-78
2023/03/16 14:56:41;;;;;;;2.53;2.03;;;;;;;;;;5048995;28;20182;-77
2023/03/16 14:59:08;;;;;;;3.80;2.50;;;;;;;;;;5028905;28;20200;-77